Jacksonville, Illinois
Current Conditions -  °F | °C
As of 8:15 AM on Monday 26 Jan 2015 (Local Time) from KIJX Reporting Station
Overcast Overcast  
Wind Chill: 22°   Ceiling: 2400
Heat Index: 27°   Visibility: 10mi
Dew Point: 22°   Wind: 5mph
Humidity: 81%   Direction: 240°WSW
Pressure: 30.03"   Gusts: NA
Location:  39.75°N, 90.23°W
Report Text: KIJX 261415Z AUTO 24004KT 10SM OVC024 M03/M06 A3003 RMK AO2 T10271056
Loading
Personal Weather Stations






























Interactive Weather Map New forecast layout! Learn more

10-Day Weather Forecast

Advertisements
Track Severe Weather on mobile